createdAt,value
2022-09-14T00:01:36.335Z,21.30
2022-09-14T00:04:06.986Z,21.30
2022-09-14T00:06:35.431Z,21.30
2022-09-14T00:09:06.835Z,21.30
2022-09-14T00:11:38.272Z,21.30
2022-09-14T00:14:07.234Z,21.30
2022-09-14T00:16:37.734Z,21.30
2022-09-14T00:19:08.456Z,21.30
2022-09-14T00:21:38.915Z,21.30
2022-09-14T00:24:08.419Z,21.30
2022-09-14T00:26:38.242Z,21.30
2022-09-14T00:29:07.341Z,21.30
2022-09-14T00:31:38.838Z,21.30
2022-09-14T00:34:08.990Z,21.30
2022-09-14T00:36:43.406Z,21.30
2022-09-14T00:39:12.132Z,21.30
2022-09-14T00:41:43.356Z,21.30
2022-09-14T00:44:44.879Z,21.20
2022-09-14T00:47:15.136Z,21.20
2022-09-14T00:49:44.953Z,21.20
2022-09-14T00:52:17.235Z,21.20
2022-09-14T00:54:48.140Z,21.20
2022-09-14T00:57:18.387Z,21.20
2022-09-14T00:59:49.237Z,21.20
2022-09-14T01:02:19.596Z,21.20
2022-09-14T01:04:48.484Z,21.20
2022-09-14T01:07:32.235Z,21.20
2022-09-14T01:10:10.156Z,21.20
2022-09-14T01:12:49.530Z,21.20
2022-09-14T01:15:26.562Z,21.20
2022-09-14T01:18:01.952Z,21.20
2022-09-14T01:20:36.491Z,21.10
2022-09-14T01:23:11.619Z,21.10
2022-09-14T01:26:16.245Z,21.10
2022-09-14T01:28:52.665Z,21.10
2022-09-14T01:31:26.721Z,21.10
2022-09-14T01:34:09.609Z,21.10
2022-09-14T01:36:40.948Z,21.10
2022-09-14T01:39:10.564Z,21.10
2022-09-14T01:41:41.241Z,21.10
2022-09-14T01:44:15.955Z,21.10
2022-09-14T01:46:48.707Z,21.10
2022-09-14T01:49:19.664Z,21.10
2022-09-14T01:51:49.580Z,21.10
2022-09-14T01:54:23.551Z,21.10
2022-09-14T01:56:54.951Z,21.10
2022-09-14T01:59:27.631Z,21.10
2022-09-14T02:02:00.895Z,21.10
2022-09-14T02:04:35.570Z,21.10
2022-09-14T02:07:04.850Z,21.10
2022-09-14T02:09:33.209Z,21.10
2022-09-14T02:12:01.567Z,21.10
2022-09-14T02:14:31.847Z,21.10
2022-09-14T02:17:00.151Z,21.10
2022-09-14T02:19:33.871Z,21.10
2022-09-14T02:22:01.944Z,21.10
2022-09-14T02:24:30.692Z,21.10
2022-09-14T02:26:59.878Z,21.10
2022-09-14T02:29:28.026Z,21.10
2022-09-14T02:32:11.118Z,21.10
2022-09-14T02:34:47.690Z,21.10
2022-09-14T02:37:22.139Z,21.10
2022-09-14T02:39:59.184Z,21.10
2022-09-14T02:42:37.106Z,21.10
2022-09-14T02:45:12.304Z,21.10
2022-09-14T02:47:55.353Z,21.20
2022-09-14T02:50:28.444Z,21.20
2022-09-14T02:53:03.148Z,21.20
2022-09-14T02:55:36.642Z,21.20
2022-09-14T02:58:07.546Z,21.20
2022-09-14T03:00:37.597Z,21.20
2022-09-14T03:03:08.707Z,21.20
2022-09-14T03:05:37.406Z,21.20
2022-09-14T03:08:06.573Z,21.20
2022-09-14T03:10:35.490Z,21.20
2022-09-14T03:13:03.771Z,21.20
2022-09-14T03:15:32.299Z,21.20
2022-09-14T03:18:00.450Z,21.20
2022-09-14T03:20:32.712Z,21.20
2022-09-14T03:23:01.784Z,21.20
2022-09-14T03:25:30.371Z,21.20
2022-09-14T03:27:59.631Z,21.20
2022-09-14T03:30:29.183Z,21.10
2022-09-14T03:32:57.352Z,21.20
2022-09-14T03:35:25.679Z,21.10
2022-09-14T03:37:55.119Z,21.10
2022-09-14T03:40:23.221Z,21.10
2022-09-14T03:42:52.750Z,21.10
2022-09-14T03:45:21.898Z,21.00
2022-09-14T03:47:50.276Z,21.00
2022-09-14T03:50:19.652Z,21.00
2022-09-14T03:52:47.969Z,20.90
2022-09-14T03:55:19.188Z,20.90
2022-09-14T03:57:47.257Z,20.90
2022-09-14T04:00:16.545Z,20.80
2022-09-14T04:02:45.424Z,20.80
2022-09-14T04:05:13.641Z,20.80
2022-09-14T04:07:41.699Z,20.80
2022-09-14T04:10:10.807Z,20.80
2022-09-14T04:12:40.810Z,20.70
2022-09-14T04:15:09.807Z,20.80
2022-09-14T04:17:37.859Z,20.70
2022-09-14T04:20:06.574Z,20.70
2022-09-14T04:22:35.242Z,20.70
2022-09-14T04:25:03.468Z,20.70
2022-09-14T04:27:31.955Z,20.70
2022-09-14T04:30:01.381Z,20.70
2022-09-14T04:32:34.060Z,20.70
2022-09-14T04:35:02.623Z,20.70
2022-09-14T04:37:32.887Z,20.60
2022-09-14T04:40:01.084Z,20.60
2022-09-14T04:42:30.923Z,20.60
2022-09-14T04:44:59.070Z,20.70
2022-09-14T04:47:30.568Z,20.60
2022-09-14T04:49:58.600Z,20.70
2022-09-14T04:52:26.663Z,20.70
2022-09-14T04:54:54.712Z,20.70
2022-09-14T04:57:22.780Z,20.70
2022-09-14T04:59:50.874Z,20.70
2022-09-14T05:02:18.995Z,20.70
2022-09-14T05:04:48.539Z,20.70
2022-09-14T05:07:16.618Z,20.80
2022-09-14T05:09:45.030Z,20.80
2022-09-14T05:12:13.117Z,20.80
2022-09-14T05:14:41.252Z,20.70
2022-09-14T05:17:09.459Z,20.80
2022-09-14T05:19:37.629Z,20.80
2022-09-14T05:22:07.136Z,20.70
2022-09-14T05:24:35.739Z,20.70
2022-09-14T05:27:03.818Z,20.70
2022-09-14T05:29:31.979Z,20.70
2022-09-14T05:32:00.214Z,20.70
2022-09-14T05:34:28.319Z,20.80
2022-09-14T05:36:56.384Z,20.70
2022-09-14T05:39:26.201Z,20.70
2022-09-14T05:41:54.290Z,20.70
2022-09-14T05:44:22.413Z,20.70
2022-09-14T05:46:50.555Z,20.70
2022-09-14T05:49:18.744Z,20.70
2022-09-14T05:51:46.775Z,20.70
2022-09-14T05:54:14.844Z,20.70
2022-09-14T05:56:44.279Z,20.70
2022-09-14T05:59:12.318Z,20.70
2022-09-14T06:01:40.650Z,20.70
2022-09-14T06:04:10.693Z,20.70
2022-09-14T06:06:38.793Z,20.70
2022-09-14T06:09:07.053Z,20.70
2022-09-14T06:11:37.379Z,20.70
2022-09-14T06:14:07.492Z,20.70
2022-09-14T06:16:36.034Z,20.70
2022-09-14T06:19:04.394Z,20.70
2022-09-14T06:21:34.531Z,20.70
2022-09-14T06:24:02.779Z,20.60
2022-09-14T06:26:31.236Z,20.60
2022-09-14T06:28:59.612Z,20.60
2022-09-14T06:31:29.096Z,20.60
2022-09-14T06:33:57.136Z,20.60
2022-09-14T06:36:27.586Z,20.60
2022-09-14T06:38:56.537Z,20.60
2022-09-14T06:41:29.150Z,20.70
2022-09-14T06:43:58.602Z,20.60
2022-09-14T06:46:29.873Z,20.60
2022-09-14T06:48:59.349Z,20.60
2022-09-14T06:51:29.600Z,20.60
2022-09-14T06:54:00.430Z,20.60
2022-09-14T06:56:29.284Z,20.70
2022-09-14T06:58:58.391Z,20.70
2022-09-14T07:01:27.683Z,20.70
2022-09-14T07:03:58.131Z,20.60
2022-09-14T07:06:28.057Z,20.70
2022-09-14T07:08:56.765Z,20.60
2022-09-14T07:11:26.928Z,20.60
2022-09-14T07:13:58.744Z,20.60
2022-09-14T07:16:26.760Z,20.60
2022-09-14T07:18:56.364Z,20.60
2022-09-14T07:21:25.369Z,20.70
2022-09-14T07:23:54.050Z,20.70
2022-09-14T07:26:24.321Z,20.70
2022-09-14T07:29:00.526Z,20.70
2022-09-14T07:31:30.980Z,20.70
2022-09-14T07:34:03.374Z,20.80
2022-09-14T07:36:35.103Z,20.80
2022-09-14T07:39:05.831Z,20.80
2022-09-14T07:41:34.826Z,20.80
2022-09-14T07:44:05.222Z,20.80
2022-09-14T07:46:38.270Z,20.90
2022-09-14T07:49:09.349Z,20.80
2022-09-14T07:51:37.995Z,20.90
2022-09-14T07:54:07.585Z,20.90
2022-09-14T07:56:36.065Z,20.90
2022-09-14T07:59:33.481Z,20.90
2022-09-14T08:01:53.322Z,21.00
2022-09-14T08:04:23.360Z,21.00
2022-09-14T08:06:51.397Z,21.00
2022-09-14T08:09:19.466Z,21.00
2022-09-14T08:11:47.567Z,21.10
2022-09-14T08:14:15.612Z,21.10
2022-09-14T08:16:43.840Z,21.10
2022-09-14T08:19:15.634Z,21.20
2022-09-14T08:21:47.206Z,21.20
2022-09-14T08:24:17.165Z,21.20
2022-09-14T08:26:45.429Z,21.20
2022-09-14T08:29:13.557Z,21.30
2022-09-14T08:31:43.203Z,21.30
2022-09-14T08:34:11.407Z,21.30
2022-09-14T08:36:40.792Z,21.30
2022-09-14T08:39:11.956Z,21.30
2022-09-14T08:41:44.713Z,21.30
2022-09-14T08:44:18.151Z,21.30
2022-09-14T08:46:50.126Z,21.30
2022-09-14T08:49:26.013Z,21.40
2022-09-14T08:51:54.152Z,21.40
2022-09-14T08:54:24.162Z,21.40
2022-09-14T08:56:59.951Z,21.40
2022-09-14T08:59:44.072Z,21.40
2022-09-14T09:02:41.878Z,21.50
2022-09-14T09:05:24.983Z,21.50
2022-09-14T09:07:58.528Z,21.50
2022-09-14T09:10:29.178Z,21.50
2022-09-14T09:13:00.911Z,21.60
2022-09-14T09:15:30.901Z,21.60
2022-09-14T09:18:03.344Z,21.70
2022-09-14T09:20:34.565Z,21.70
2022-09-14T09:23:11.726Z,21.70
2022-09-14T09:25:52.464Z,21.70
2022-09-14T09:28:23.043Z,21.70
2022-09-14T09:30:51.424Z,21.70
2022-09-14T09:33:29.550Z,21.70
2022-09-14T09:35:58.022Z,21.70
2022-09-14T09:38:27.848Z,21.70
2022-09-14T09:41:06.511Z,21.70
2022-09-14T09:43:49.056Z,21.70
2022-09-14T09:46:18.716Z,21.80
2022-09-14T09:48:48.294Z,21.70
2022-09-14T09:51:23.535Z,21.80
2022-09-14T09:53:54.735Z,21.80
2022-09-14T09:56:26.671Z,21.70
2022-09-14T09:58:54.747Z,21.80
2022-09-14T10:01:28.176Z,21.80
2022-09-14T10:04:06.188Z,21.80
2022-09-14T10:06:43.325Z,21.80
2022-09-14T10:09:16.996Z,21.70
2022-09-14T10:11:47.446Z,21.80
2022-09-14T10:14:25.376Z,21.80
2022-09-14T10:16:53.932Z,21.80
2022-09-14T10:19:25.990Z,21.70
2022-09-14T10:22:06.706Z,21.70
2022-09-14T10:24:36.835Z,21.70
2022-09-14T10:27:38.079Z,21.70
2022-09-14T10:30:12.189Z,21.70
2022-09-14T10:32:42.502Z,21.70
2022-09-14T10:35:15.370Z,21.70
2022-09-14T10:38:04.184Z,21.70
2022-09-14T10:40:37.560Z,21.80
2022-09-14T10:43:14.319Z,21.90
2022-09-14T10:45:47.035Z,21.90
2022-09-14T10:48:48.370Z,22.00
2022-09-14T10:51:32.544Z,22.10
2022-09-14T10:54:08.733Z,22.10
2022-09-14T10:56:49.483Z,22.20
2022-09-14T10:59:31.773Z,22.20
2022-09-14T11:02:26.547Z,22.20
2022-09-14T11:05:09.121Z,22.20
2022-09-14T11:07:46.929Z,22.20
2022-09-14T11:10:21.863Z,22.20
2022-09-14T11:13:12.103Z,22.20
2022-09-14T11:15:51.386Z,22.20
2022-09-14T11:18:32.818Z,22.10
2022-09-14T11:21:08.902Z,22.20
2022-09-14T11:23:49.173Z,22.20
2022-09-14T11:26:24.619Z,22.20
2022-09-14T11:28:56.093Z,22.20
2022-09-14T11:31:30.137Z,22.20
2022-09-14T11:34:05.744Z,22.20
2022-09-14T11:36:38.268Z,22.20
2022-09-14T11:39:13.657Z,22.20
2022-09-14T11:41:48.456Z,22.20
2022-09-14T11:44:20.367Z,22.20
2022-09-14T11:46:58.711Z,22.20
2022-09-14T11:49:32.786Z,22.20
2022-09-14T11:52:08.119Z,22.20
2022-09-14T11:54:44.664Z,22.30
2022-09-14T11:57:18.679Z,22.30
2022-09-14T11:59:55.134Z,22.20
2022-09-14T12:03:02.468Z,22.20
2022-09-14T12:05:35.717Z,22.30
2022-09-14T12:08:41.299Z,22.20
2022-09-14T12:11:35.007Z,22.20
2022-09-14T12:14:30.273Z,22.10
2022-09-14T12:20:44.019Z,22.10
2022-09-14T12:23:27.930Z,22.10
2022-09-14T12:26:00.956Z,22.10
2022-09-14T12:28:40.999Z,22.10
2022-09-14T12:31:32.933Z,22.10
2022-09-14T12:34:14.973Z,22.10
2022-09-14T12:37:27.260Z,22.10
2022-09-14T12:40:24.151Z,22.20
2022-09-14T12:42:52.281Z,22.20
2022-09-14T12:45:49.651Z,22.20
2022-09-14T12:48:47.605Z,22.20
2022-09-14T12:51:23.618Z,22.20
2022-09-14T12:54:03.579Z,22.30
2022-09-14T12:56:39.427Z,22.30
2022-09-14T12:59:12.471Z,22.30
2022-09-14T13:01:49.878Z,22.30
2022-09-14T13:04:24.982Z,22.30
2022-09-14T13:06:54.344Z,22.30
2022-09-14T13:09:26.242Z,22.30
2022-09-14T13:12:00.068Z,22.40
2022-09-14T13:14:31.590Z,22.40
2022-09-14T13:17:03.237Z,22.40
2022-09-14T13:19:33.708Z,22.50
2022-09-14T13:22:03.785Z,22.50
2022-09-14T13:24:38.778Z,22.50
2022-09-14T13:27:16.400Z,22.50
2022-09-14T13:29:44.497Z,22.60
2022-09-14T13:32:18.951Z,22.60
2022-09-14T13:34:47.843Z,22.60
2022-09-14T13:37:16.812Z,22.60
2022-09-14T13:39:52.014Z,22.70
2022-09-14T13:42:20.765Z,22.70
2022-09-14T13:44:49.961Z,22.70
2022-09-14T13:47:20.519Z,22.70
2022-09-14T13:49:50.424Z,22.70
2022-09-14T13:52:20.339Z,22.70
2022-09-14T13:54:50.527Z,22.70
2022-09-14T13:57:21.123Z,22.70
2022-09-14T14:00:19.961Z,22.70
2022-09-14T14:02:50.981Z,22.70
2022-09-14T14:05:27.764Z,22.80
2022-09-14T14:07:57.945Z,22.80
2022-09-14T14:10:31.001Z,22.80
2022-09-14T14:12:59.355Z,22.80
2022-09-14T14:15:40.622Z,22.90
2022-09-14T14:18:31.131Z,22.90
2022-09-14T14:21:07.129Z,22.90
2022-09-14T14:23:36.402Z,22.90
2022-09-14T14:26:17.026Z,22.90
2022-09-14T14:28:45.255Z,22.90
2022-09-14T14:31:15.720Z,22.90
2022-09-14T14:33:48.005Z,22.90
2022-09-14T14:36:16.528Z,22.90
2022-09-14T14:38:45.247Z,22.90
2022-09-14T14:41:18.570Z,22.90
2022-09-14T14:43:47.506Z,23.00
2022-09-14T14:46:16.664Z,23.00
2022-09-14T14:48:45.111Z,23.00
2022-09-14T14:51:15.181Z,23.00
2022-09-14T14:53:44.731Z,23.00
2022-09-14T14:56:15.265Z,23.00
2022-09-14T14:58:45.468Z,22.90
2022-09-14T15:01:14.186Z,22.90
2022-09-14T15:03:42.415Z,22.90
2022-09-14T15:06:16.105Z,22.90
2022-09-14T15:08:44.394Z,22.80
2022-09-14T15:11:17.909Z,22.80
2022-09-14T15:13:50.141Z,22.80
2022-09-14T15:16:18.649Z,22.80
2022-09-14T15:18:46.819Z,22.80
2022-09-14T15:21:14.899Z,22.80
2022-09-14T15:23:42.987Z,22.80
2022-09-14T15:26:11.017Z,22.80
2022-09-14T15:28:40.439Z,22.80
2022-09-14T15:31:08.505Z,22.90
2022-09-14T15:33:36.580Z,22.90
2022-09-14T15:36:04.718Z,22.80
2022-09-14T15:38:32.803Z,22.80
2022-09-14T15:41:00.821Z,22.80
2022-09-14T15:43:28.972Z,22.80
2022-09-14T15:46:03.478Z,22.70
2022-09-14T15:48:31.646Z,22.70
2022-09-14T15:51:00.700Z,22.60
2022-09-14T15:53:28.730Z,22.60
2022-09-14T15:55:57.310Z,22.60
2022-09-14T15:58:25.435Z,22.50
2022-09-14T16:00:53.481Z,22.50
2022-09-14T16:03:23.050Z,22.50
2022-09-14T16:05:51.078Z,22.50
2022-09-14T16:08:19.189Z,22.40
2022-09-14T16:10:47.665Z,22.40
2022-09-14T16:13:15.779Z,22.40
2022-09-14T16:15:44.134Z,22.30
2022-09-14T16:18:12.232Z,22.30
2022-09-14T16:20:41.669Z,22.30
2022-09-14T16:23:09.826Z,22.30
2022-09-14T16:25:40.634Z,22.30
2022-09-14T16:28:08.705Z,22.30
2022-09-14T16:30:36.801Z,22.20
2022-09-14T16:33:05.017Z,22.30
2022-09-14T16:35:33.094Z,22.20
2022-09-14T16:38:02.525Z,22.20
2022-09-14T16:40:31.587Z,22.20
2022-09-14T16:43:00.081Z,22.20
2022-09-14T16:45:28.178Z,22.20
2022-09-14T16:47:56.279Z,22.20
2022-09-14T16:50:24.476Z,22.20
2022-09-14T16:52:52.540Z,22.20
2022-09-14T16:55:21.998Z,22.20
2022-09-14T16:57:50.060Z,22.20
2022-09-14T17:00:18.318Z,22.20
2022-09-14T17:02:46.473Z,22.10
2022-09-14T17:05:14.603Z,22.10
2022-09-14T17:07:42.648Z,22.10
2022-09-14T17:10:11.411Z,22.00
2022-09-14T17:12:40.876Z,22.00
2022-09-14T17:15:10.767Z,21.90
2022-09-14T17:17:38.856Z,21.90
2022-09-14T17:20:08.604Z,21.90
2022-09-14T17:22:36.761Z,21.80
2022-09-14T17:25:05.333Z,21.80
2022-09-14T17:27:33.375Z,21.80
2022-09-14T17:30:02.990Z,21.70
2022-09-14T17:32:31.175Z,21.70
2022-09-14T17:34:59.358Z,21.70
2022-09-14T17:37:27.578Z,21.60
2022-09-14T17:39:55.781Z,21.60
2022-09-14T17:42:23.954Z,21.50
2022-09-14T17:44:52.105Z,21.50
2022-09-14T17:47:21.736Z,21.40
2022-09-14T17:49:49.884Z,21.30
2022-09-14T17:52:17.943Z,21.30
2022-09-14T17:54:46.014Z,21.20
2022-09-14T17:57:14.052Z,21.10
2022-09-14T17:59:42.251Z,21.00
2022-09-14T18:02:10.899Z,21.00
2022-09-14T18:04:41.742Z,20.90
2022-09-14T18:07:11.396Z,20.80
2022-09-14T18:09:39.582Z,20.80
2022-09-14T18:12:10.341Z,20.70
2022-09-14T18:14:38.464Z,20.70
2022-09-14T18:17:06.540Z,20.60
2022-09-14T18:19:34.635Z,20.60
2022-09-14T18:22:04.183Z,20.60
2022-09-14T18:24:32.484Z,20.50
2022-09-14T18:27:01.021Z,20.50
2022-09-14T18:29:29.836Z,20.50
2022-09-14T18:31:58.038Z,20.50
2022-09-14T18:34:26.834Z,20.40
2022-09-14T18:36:55.025Z,20.40
2022-09-14T18:39:24.775Z,20.40
2022-09-14T18:41:54.203Z,20.40
2022-09-14T18:44:22.622Z,20.40
2022-09-14T18:47:01.535Z,20.30
2022-09-14T18:49:29.664Z,20.40
2022-09-14T18:51:57.770Z,20.40
2022-09-14T18:54:27.870Z,20.40
2022-09-14T18:56:56.064Z,20.30
2022-09-14T18:59:24.127Z,20.30
2022-09-14T19:01:52.313Z,20.30
2022-09-14T19:04:20.419Z,20.30
2022-09-14T19:06:48.528Z,20.30
2022-09-14T19:09:16.596Z,20.30
2022-09-14T19:11:46.089Z,20.30
2022-09-14T19:14:21.982Z,20.30
2022-09-14T19:16:51.414Z,20.30
2022-09-14T19:19:19.710Z,20.20
2022-09-14T19:21:47.764Z,20.20
2022-09-14T19:24:17.521Z,20.20
2022-09-14T19:26:49.202Z,20.20
2022-09-14T19:29:20.412Z,20.20
2022-09-14T19:31:51.535Z,20.20
2022-09-14T19:34:20.916Z,20.20
2022-09-14T19:36:50.839Z,20.10
2022-09-14T19:39:19.103Z,20.10
2022-09-14T19:41:51.796Z,20.10
2022-09-14T19:44:22.319Z,20.10
2022-09-14T19:46:50.834Z,20.10
2022-09-14T19:49:21.337Z,20.10
2022-09-14T19:51:50.076Z,20.10
2022-09-14T19:54:18.436Z,20.10
2022-09-14T19:56:48.199Z,20.10
2022-09-14T19:59:17.102Z,20.00
2022-09-14T20:01:46.270Z,20.00
2022-09-14T20:04:15.730Z,20.00
2022-09-14T20:06:45.711Z,20.00
2022-09-14T20:09:16.793Z,20.00
2022-09-14T20:11:46.551Z,20.00
2022-09-14T20:14:17.723Z,20.00
2022-09-14T20:16:48.235Z,20.00
2022-09-14T20:19:18.031Z,19.90
2022-09-14T20:21:47.539Z,20.00
2022-09-14T20:24:18.919Z,19.90
2022-09-14T20:26:48.133Z,19.90
2022-09-14T20:29:19.027Z,19.90
2022-09-14T20:31:48.155Z,19.90
2022-09-14T20:34:18.284Z,19.90
2022-09-14T20:36:46.753Z,19.90
2022-09-14T20:39:14.981Z,19.90
2022-09-14T20:41:43.311Z,19.80
2022-09-14T20:44:12.018Z,19.80
2022-09-14T20:46:44.878Z,19.90
2022-09-14T20:49:15.054Z,19.80
2022-09-14T20:51:43.984Z,19.80
2022-09-14T20:54:13.901Z,19.80
2022-09-14T20:56:42.774Z,19.80
2022-09-14T20:59:16.846Z,19.80
2022-09-14T21:01:49.413Z,19.80
2022-09-14T21:04:19.816Z,19.80
2022-09-14T21:06:50.052Z,19.80
2022-09-14T21:09:19.102Z,19.80
2022-09-14T21:11:47.911Z,19.80
2022-09-14T21:14:17.200Z,19.80
2022-09-14T21:16:48.411Z,19.80
2022-09-14T21:19:19.417Z,19.80
2022-09-14T21:21:48.739Z,19.80
2022-09-14T21:24:17.824Z,19.80
2022-09-14T21:26:46.651Z,19.80
2022-09-14T21:29:17.334Z,19.80
2022-09-14T21:31:46.874Z,19.80
2022-09-14T21:34:14.980Z,19.80
2022-09-14T21:36:46.208Z,19.80
2022-09-14T21:39:16.603Z,19.80
2022-09-14T21:41:46.257Z,19.70
2022-09-14T21:44:14.991Z,19.70
2022-09-14T21:46:43.588Z,19.70
2022-09-14T21:49:15.880Z,19.70
2022-09-14T21:51:44.634Z,19.70
2022-09-14T21:54:14.555Z,19.70
2022-09-14T21:56:44.795Z,19.70
2022-09-14T21:59:16.061Z,19.70
2022-09-14T22:01:44.551Z,19.70
2022-09-14T22:04:17.435Z,19.70
2022-09-14T22:06:46.242Z,19.60
2022-09-14T22:09:15.043Z,19.70
2022-09-14T22:11:43.173Z,19.60
2022-09-14T22:14:15.493Z,19.60
2022-09-14T22:16:43.862Z,19.60
2022-09-14T22:19:17.533Z,19.60
2022-09-14T22:21:45.692Z,19.60
2022-09-14T22:24:17.346Z,19.60
2022-09-14T22:26:46.558Z,19.60
2022-09-14T22:29:15.572Z,19.60
2022-09-14T22:31:45.068Z,19.60
2022-09-14T22:34:14.696Z,19.60
2022-09-14T22:36:42.950Z,19.60
2022-09-14T22:39:11.660Z,19.60
2022-09-14T22:41:40.366Z,19.60
2022-09-14T22:44:09.524Z,19.60
2022-09-14T22:46:37.613Z,19.60
2022-09-14T22:49:05.924Z,19.60
2022-09-14T22:51:38.103Z,19.60
2022-09-14T22:54:07.275Z,19.60
2022-09-14T22:56:37.011Z,19.60
2022-09-14T22:59:07.035Z,19.60
2022-09-14T23:01:37.286Z,19.70
2022-09-14T23:04:07.290Z,19.70
2022-09-14T23:06:39.202Z,19.70
2022-09-14T23:09:09.146Z,19.60
2022-09-14T23:11:37.725Z,19.70
2022-09-14T23:14:05.916Z,19.70
2022-09-14T23:16:34.022Z,19.70
2022-09-14T23:19:03.913Z,19.70
2022-09-14T23:21:33.141Z,19.60
2022-09-14T23:24:05.399Z,19.70
2022-09-14T23:26:34.375Z,19.60
2022-09-14T23:29:09.165Z,19.60
2022-09-14T23:31:37.712Z,19.60
2022-09-14T23:34:06.793Z,19.60
2022-09-14T23:36:35.403Z,19.60
2022-09-14T23:39:05.524Z,19.60
2022-09-14T23:41:33.669Z,19.60
2022-09-14T23:44:01.912Z,19.60
2022-09-14T23:46:30.052Z,19.60
2022-09-14T23:48:58.220Z,19.50
2022-09-14T23:51:26.333Z,19.60
2022-09-14T23:53:56.804Z,19.60
2022-09-14T23:56:26.350Z,19.60
2022-09-14T23:58:54.423Z,19.60
